Van Ferit Melen Airport

LTCI · 凡城省, 土耳其

罗盘
风向 的 风向 070° Van Ferit Melen Airport 3/21
风: 4 kt, 2 beaufort

3 kt

2 kt
改变
0 ft 2.000 4.000 6.000 8.000 10.000
Cloud Cloud Cloud Cloud Cloud Cloud
BKN 3.000
Cloud Cloud Cloud Cloud Cloud Cloud
BKN 7.000
METAR LTCI 032150Z 07004KT 9999 -SN BKN030 BKN070 00/M02 Q1014 NOSIG RMK RWY21 08003KT 050V110 5SC030 7AC070

METAR Van Ferit Melen Airport - LTCI/VAN

Van Ferit Melen Airport是,土耳其中的中型机场。 该机场位于纬度38,46820和经度43,33230。 该机场有一条跑道: 3/21. 本场的ICAO机场代码为LTCI。 该机场的IATA代码为VAN。 机场在Ankara FIR中。

该航空气象观测是针对Van Ferit Melen Airport在2024年3月4日 00:50, 当地时间进行的。

机场观察

风向为070°,速度为4 kt。

可见度为10 km 或者更多。

有碎云在3.000 ft的高度 和 碎云在7.000 ft的高度。 破损或更高的上限为3.000 ft。

当前天气为光 雪。 温度为0 °C,阵风为-4 °C。 露点为-2 °C,相对湿度为87%。 海平面上的气压为1014 hPa (QNH)。

白天

今天,太阳从06:35升起,在18:01降落。 这适用于Van Ferit Melen Airport,世界夏令时可能有所不同。 当地时间与世界标准时间之间的时差为+3 小时。 当前,没有夏令时有效。

公司介绍

我们没有关于这个机场的公司信息。

体会

到Vliegles.nl去找飞行课程,跳伞和其他飞行体验。 浏览页面,了解Van Ferit Melen Airport附近所有可用的活动。 你也可以使用搜索功能来寻找你所在地附近的特定飞行课程、跳伞或其他飞行体验。

跑道

Id 标题 侧风 逆风 侧风 %
3/21 038°-218° 2 kt 3 kt 53 %

逆风成分最大的方向会被突出显示,并用于横风计算。 这并不一定意味着这个方向在使用。

乌云

3.000 ft BKN 碎云
7.000 ft BKN 碎云

温度 & 天气

天气 光 雪
温度 0 °C
露点 -2 °C
相对湿度 87%
风寒 -4 °C
Kp-index 3 (0-9)

评论

RWY21 08003KT 050V110 5SC030 7AC070

白天

日出
06:35 (5:25)
中午
12:18
日落
18:01

小工具

你想在你的网站上有一个关于Van Ferit Melen Airport的当前航空天气(METAR)的小部件吗?

显示HTML代码
?>